createdAt,value
2022-08-03T00:01:50.771Z,12.90
2022-08-03T00:04:17.508Z,13.60
2022-08-03T00:06:44.087Z,17.23
2022-08-03T00:09:11.152Z,14.90
2022-08-03T00:11:37.981Z,15.88
2022-08-03T00:14:05.674Z,13.98
2022-08-03T00:16:32.441Z,14.25
2022-08-03T00:19:00.997Z,14.95
2022-08-03T00:21:28.490Z,13.80
2022-08-03T00:23:55.070Z,16.42
2022-08-03T00:26:21.879Z,15.00
2022-08-03T00:28:49.018Z,15.43
2022-08-03T00:31:15.762Z,14.95
2022-08-03T00:33:59.034Z,15.43
2022-08-03T00:36:28.321Z,15.35
2022-08-03T00:38:55.390Z,15.05
2022-08-03T00:41:21.912Z,14.68
2022-08-03T00:43:48.490Z,14.45
2022-08-03T00:46:20.535Z,14.77
2022-08-03T00:48:51.052Z,15.25
2022-08-03T00:51:19.044Z,15.48
2022-08-03T00:53:45.970Z,17.40
2022-08-03T00:56:16.595Z,16.20
2022-08-03T00:58:46.886Z,14.65
2022-08-03T01:01:13.822Z,15.73
2022-08-03T01:03:40.681Z,15.43
2022-08-03T01:06:20.740Z,18.20
2022-08-03T01:09:12.743Z,15.75
2022-08-03T01:12:01.882Z,16.05
2022-08-03T01:14:42.295Z,15.48
2022-08-03T01:17:20.633Z,15.13
2022-08-03T01:19:58.527Z,15.32
2022-08-03T01:22:49.964Z,15.77
2022-08-03T01:25:22.402Z,14.57
2022-08-03T01:28:03.571Z,15.05
2022-08-03T01:30:31.864Z,16.08
2022-08-03T01:33:05.291Z,14.82
2022-08-03T01:38:18.596Z,14.68
2022-08-03T01:40:47.053Z,15.05
2022-08-03T01:44:26.732Z,16.05
2022-08-03T01:46:04.367Z,15.48
2022-08-03T01:48:32.024Z,17.02
2022-08-03T01:50:59.598Z,17.77
2022-08-03T01:53:26.333Z,16.40
2022-08-03T01:55:55.068Z,16.23
2022-08-03T01:58:22.275Z,15.60
2022-08-03T02:00:49.792Z,16.25
2022-08-03T02:03:16.657Z,16.95
2022-08-03T02:05:45.397Z,19.15
2022-08-03T02:08:13.247Z,18.58
2022-08-03T02:10:41.738Z,17.80
2022-08-03T02:13:08.908Z,16.83
2022-08-03T02:15:37.295Z,18.20
2022-08-03T02:18:06.360Z,16.58
2022-08-03T02:20:36.210Z,17.98
2022-08-03T02:23:02.709Z,17.25
2022-08-03T02:25:30.411Z,17.08
2022-08-03T02:28:07.057Z,17.67
2022-08-03T02:30:40.063Z,18.50
2022-08-03T02:33:18.296Z,18.25
2022-08-03T02:35:45.276Z,17.65
2022-08-03T02:38:12.794Z,20.75
2022-08-03T02:40:39.659Z,17.02
2022-08-03T02:43:09.322Z,16.63
2022-08-03T02:45:37.121Z,17.25
2022-08-03T02:48:05.211Z,18.10
2022-08-03T02:50:32.397Z,17.50
2022-08-03T02:52:59.970Z,18.77
2022-08-03T02:55:27.438Z,18.50
2022-08-03T02:57:54.648Z,17.85
2022-08-03T03:00:27.365Z,18.23
2022-08-03T03:02:57.702Z,19.38
2022-08-03T03:05:54.518Z,19.75
2022-08-03T03:08:17.974Z,19.60
2022-08-03T03:10:46.013Z,18.42
2022-08-03T03:13:14.210Z,18.30
2022-08-03T03:15:41.837Z,17.10
2022-08-03T03:18:10.044Z,18.52
2022-08-03T03:20:37.639Z,19.08
2022-08-03T03:23:05.241Z,19.45
2022-08-03T03:25:32.518Z,18.08
2022-08-03T03:28:00.471Z,18.70
2022-08-03T03:30:28.025Z,18.05
2022-08-03T03:32:54.705Z,18.92
2022-08-03T03:35:21.460Z,18.83
2022-08-03T03:37:48.000Z,18.75
2022-08-03T03:40:14.727Z,19.02
2022-08-03T03:42:41.477Z,19.05
2022-08-03T03:45:08.631Z,18.40
2022-08-03T03:47:35.673Z,21.73
2022-08-03T03:50:03.819Z,19.77
2022-08-03T03:52:31.640Z,20.45
2022-08-03T03:55:01.026Z,18.75
2022-08-03T03:57:28.239Z,19.65
2022-08-03T03:59:54.737Z,18.92
2022-08-03T04:02:21.231Z,18.95
2022-08-03T04:05:06.246Z,19.63
2022-08-03T04:08:11.971Z,20.25
2022-08-03T04:10:58.684Z,18.15
2022-08-03T04:13:29.628Z,16.80
2022-08-03T04:15:56.900Z,17.90
2022-08-03T04:18:24.486Z,18.55
2022-08-03T04:20:51.996Z,16.85
2022-08-03T04:23:21.414Z,17.58
2022-08-03T04:25:49.207Z,16.65
2022-08-03T04:28:31.321Z,15.93
2022-08-03T04:30:59.895Z,16.73
2022-08-03T04:33:29.556Z,14.57
2022-08-03T04:36:02.636Z,13.35
2022-08-03T04:38:31.738Z,16.08
2022-08-03T04:40:59.496Z,15.93
2022-08-03T04:43:26.866Z,13.55
2022-08-03T04:45:54.002Z,12.32
2022-08-03T04:48:20.674Z,13.15
2022-08-03T04:50:47.919Z,13.38
2022-08-03T04:53:14.431Z,15.68
2022-08-03T04:55:40.937Z,12.85
2022-08-03T04:58:07.454Z,13.70
2022-08-03T05:00:33.954Z,12.20
2022-08-03T05:03:00.467Z,12.00
2022-08-03T05:05:27.016Z,12.27
2022-08-03T05:08:13.505Z,9.95
2022-08-03T05:10:40.560Z,12.65
2022-08-03T05:13:11.922Z,10.82
2022-08-03T05:15:42.941Z,13.38
2022-08-03T05:18:14.009Z,10.13
2022-08-03T05:20:41.147Z,13.40
2022-08-03T05:23:07.703Z,9.57
2022-08-03T05:25:34.248Z,9.45
2022-08-03T05:28:00.748Z,10.63
2022-08-03T05:30:33.571Z,7.78
2022-08-03T05:33:01.973Z,10.98
2022-08-03T05:35:57.883Z,9.70
2022-08-03T05:38:28.126Z,12.85
2022-08-03T05:41:22.096Z,11.88
2022-08-03T05:43:47.438Z,9.25
2022-08-03T05:46:14.033Z,9.27
2022-08-03T05:48:41.381Z,11.13
2022-08-03T05:51:11.193Z,10.55
2022-08-03T05:53:38.398Z,9.27
2022-08-03T05:56:13.800Z,12.48
2022-08-03T05:58:46.161Z,8.13
2022-08-03T06:01:12.871Z,12.05
2022-08-03T06:03:39.480Z,10.20
2022-08-03T06:06:06.098Z,8.15
2022-08-03T06:08:32.597Z,7.20
2022-08-03T06:10:59.096Z,8.65
2022-08-03T06:13:25.656Z,11.15
2022-08-03T06:15:52.153Z,7.50
2022-08-03T06:18:18.769Z,4.72
2022-08-03T06:20:45.327Z,5.93
2022-08-03T06:23:16.220Z,5.25
2022-08-03T06:25:44.566Z,6.32
2022-08-03T06:28:35.210Z,7.20
2022-08-03T06:30:58.961Z,4.93
2022-08-03T06:33:26.452Z,6.15
2022-08-03T06:36:12.971Z,8.40
2022-08-03T06:38:39.470Z,5.18
2022-08-03T06:41:06.067Z,6.68
2022-08-03T06:43:35.903Z,5.38
2022-08-03T06:46:02.530Z,8.23
2022-08-03T06:48:29.113Z,4.55
2022-08-03T06:50:55.653Z,5.82
2022-08-03T06:53:22.493Z,5.47
2022-08-03T06:55:54.267Z,7.32
2022-08-03T06:58:21.329Z,4.05
2022-08-03T07:00:48.045Z,7.18
2022-08-03T07:03:15.104Z,4.18
2022-08-03T07:05:42.321Z,5.75
2022-08-03T07:08:08.887Z,7.95
2022-08-03T07:10:35.397Z,5.97
2022-08-03T07:13:01.893Z,7.32
2022-08-03T07:15:55.632Z,7.72
2022-08-03T07:18:14.909Z,7.55
2022-08-03T07:20:41.449Z,6.03
2022-08-03T07:23:07.974Z,4.63
2022-08-03T07:25:34.619Z,8.80
2022-08-03T07:28:02.917Z,6.90
2022-08-03T07:30:29.433Z,9.18
2022-08-03T07:32:55.952Z,9.65
2022-08-03T07:35:24.704Z,5.70
2022-08-03T07:37:54.412Z,6.15
2022-08-03T07:40:22.200Z,5.32
2022-08-03T07:42:48.791Z,12.32
2022-08-03T07:45:19.743Z,8.50
2022-08-03T07:47:53.650Z,6.05
2022-08-03T07:50:21.278Z,6.53
2022-08-03T07:52:48.063Z,8.65
2022-08-03T07:55:14.568Z,6.85
2022-08-03T07:57:41.207Z,6.70
2022-08-03T08:00:14.355Z,9.82
2022-08-03T08:02:41.531Z,8.15
2022-08-03T08:05:08.571Z,9.18
2022-08-03T08:07:35.075Z,7.63
2022-08-03T08:10:01.476Z,15.57
2022-08-03T08:12:28.140Z,6.95
2022-08-03T08:14:54.642Z,8.65
2022-08-03T08:17:21.167Z,8.77
2022-08-03T08:19:51.562Z,10.15
2022-08-03T08:22:26.544Z,8.80
2022-08-03T08:24:58.489Z,7.80
2022-08-03T08:28:29.372Z,8.90
2022-08-03T08:30:26.682Z,9.18
2022-08-03T08:32:58.322Z,7.78
2022-08-03T08:35:29.972Z,7.50
2022-08-03T08:37:56.612Z,11.18
2022-08-03T08:40:25.525Z,9.50
2022-08-03T08:42:58.502Z,9.52
2022-08-03T08:45:26.460Z,9.63
2022-08-03T08:47:59.763Z,9.32
2022-08-03T08:50:28.752Z,8.80
2022-08-03T08:52:56.231Z,9.90
2022-08-03T08:55:23.461Z,10.00
2022-08-03T08:57:53.181Z,9.95
2022-08-03T09:00:20.494Z,6.57
2022-08-03T09:02:47.230Z,8.82
2022-08-03T09:05:20.874Z,9.68
2022-08-03T09:07:54.279Z,8.25
2022-08-03T09:10:22.010Z,6.45
2022-08-03T09:12:51.258Z,10.65
2022-08-03T09:15:31.170Z,8.40
2022-08-03T09:18:00.254Z,6.65
2022-08-03T09:20:29.502Z,9.25
2022-08-03T09:22:58.914Z,10.93
2022-08-03T09:25:32.755Z,10.93
2022-08-03T09:28:11.094Z,7.72
2022-08-03T09:30:43.610Z,10.70
2022-08-03T09:33:12.366Z,8.10
2022-08-03T09:35:58.508Z,7.45
2022-08-03T09:38:28.336Z,12.63
2022-08-03T09:40:59.542Z,8.77
2022-08-03T09:43:27.558Z,12.55
2022-08-03T09:46:03.383Z,7.72
2022-08-03T09:48:31.107Z,10.40
2022-08-03T09:51:12.933Z,6.35
2022-08-03T09:53:58.773Z,8.13
2022-08-03T09:56:47.171Z,10.73
2022-08-03T09:59:26.707Z,8.85
2022-08-03T10:01:54.505Z,7.28
2022-08-03T10:04:21.556Z,7.07
2022-08-03T10:07:03.398Z,6.45
2022-08-03T10:09:30.014Z,8.95
2022-08-03T10:11:56.746Z,9.73
2022-08-03T10:14:23.679Z,9.68
2022-08-03T10:16:50.599Z,8.40
2022-08-03T10:19:17.420Z,9.25
2022-08-03T10:21:51.195Z,7.43
2022-08-03T10:24:21.201Z,8.85
2022-08-03T10:26:49.926Z,11.25
2022-08-03T10:29:27.373Z,8.68
2022-08-03T10:31:58.749Z,11.02
2022-08-03T10:34:34.989Z,11.10
2022-08-03T10:37:05.351Z,11.43
2022-08-03T10:39:32.082Z,10.40
2022-08-03T10:41:59.869Z,10.55
2022-08-03T10:44:37.714Z,10.10
2022-08-03T10:47:04.576Z,9.38
2022-08-03T10:49:34.830Z,10.32
2022-08-03T10:52:02.858Z,7.90
2022-08-03T10:55:10.076Z,11.60
2022-08-03T10:57:49.660Z,9.95
2022-08-03T11:00:18.503Z,13.10
2022-08-03T11:03:06.938Z,13.40
2022-08-03T11:05:38.467Z,9.40
2022-08-03T11:08:22.219Z,8.85
2022-08-03T11:10:50.155Z,11.07
2022-08-03T11:13:19.216Z,10.02
2022-08-03T11:15:47.862Z,14.48
2022-08-03T11:18:14.911Z,9.75
2022-08-03T11:20:59.472Z,8.48
2022-08-03T11:24:03.072Z,11.57
2022-08-03T11:26:33.308Z,11.85
2022-08-03T11:29:27.323Z,11.02
2022-08-03T11:34:20.258Z,10.90
2022-08-03T11:37:21.742Z,10.73
2022-08-03T11:39:50.567Z,11.75
2022-08-03T11:42:23.135Z,11.02
2022-08-03T11:45:00.232Z,11.10
2022-08-03T11:47:28.118Z,11.18
2022-08-03T11:49:57.443Z,9.50
2022-08-03T11:52:26.930Z,10.27
2022-08-03T11:54:56.949Z,13.50
2022-08-03T11:58:58.211Z,8.75
2022-08-03T12:00:29.012Z,12.45
2022-08-03T12:03:12.134Z,10.50
2022-08-03T12:05:51.086Z,11.43
2022-08-03T12:08:39.271Z,9.98
2022-08-03T12:11:09.039Z,7.25
2022-08-03T12:14:44.868Z,9.88
2022-08-03T12:16:32.323Z,8.35
2022-08-03T12:18:59.867Z,8.95
2022-08-03T12:21:26.733Z,10.25
2022-08-03T12:24:00.199Z,12.93
2022-08-03T12:26:28.150Z,11.32
2022-08-03T12:28:54.699Z,9.90
2022-08-03T12:31:21.254Z,12.93
2022-08-03T12:33:58.933Z,9.15
2022-08-03T12:36:26.575Z,9.85
2022-08-03T12:39:02.302Z,12.18
2022-08-03T12:41:35.134Z,9.65
2022-08-03T12:44:06.841Z,13.27
2022-08-03T12:46:41.656Z,10.98
2022-08-03T12:49:14.998Z,12.90
2022-08-03T12:51:44.494Z,9.15
2022-08-03T12:54:17.043Z,13.25
2022-08-03T12:57:05.952Z,13.23
2022-08-03T12:59:45.204Z,7.30
2022-08-03T13:02:23.620Z,14.95
2022-08-03T13:04:51.083Z,7.93
2022-08-03T13:07:18.377Z,11.40
2022-08-03T13:09:48.233Z,7.50
2022-08-03T13:12:21.000Z,7.57
2022-08-03T13:14:49.540Z,9.30
2022-08-03T13:17:19.588Z,10.70
2022-08-03T13:19:47.203Z,11.02
2022-08-03T13:22:22.172Z,8.15
2022-08-03T13:24:50.645Z,7.70
2022-08-03T13:28:01.404Z,9.38
2022-08-03T13:30:04.847Z,10.93
2022-08-03T13:32:31.352Z,7.90
2022-08-03T13:34:58.158Z,7.65
2022-08-03T13:37:25.362Z,10.48
2022-08-03T13:39:58.787Z,12.15
2022-08-03T13:42:31.416Z,7.65
2022-08-03T13:44:58.882Z,7.85
2022-08-03T13:47:25.842Z,7.13
2022-08-03T13:50:00.447Z,10.60
2022-08-03T13:52:30.247Z,9.80
2022-08-03T13:54:56.750Z,8.32
2022-08-03T13:58:04.253Z,13.57
2022-08-03T14:00:10.310Z,10.73
2022-08-03T14:02:37.097Z,10.10
2022-08-03T14:05:03.810Z,10.63
2022-08-03T14:07:30.303Z,13.13
2022-08-03T14:09:56.924Z,10.65
2022-08-03T14:12:23.432Z,9.45
2022-08-03T14:14:50.007Z,13.02
2022-08-03T14:17:16.740Z,10.80
2022-08-03T14:19:53.503Z,8.38
2022-08-03T14:22:20.990Z,13.80
2022-08-03T14:24:47.511Z,10.90
2022-08-03T14:27:15.789Z,11.88
2022-08-03T14:29:42.304Z,12.20
2022-08-03T14:32:11.974Z,9.45
2022-08-03T14:34:39.449Z,12.48
2022-08-03T14:37:05.939Z,11.60
2022-08-03T14:42:20.302Z,12.50
2022-08-03T14:44:46.974Z,16.15
2022-08-03T14:47:13.555Z,11.02
2022-08-03T14:50:31.257Z,15.48
2022-08-03T14:52:26.551Z,13.27
2022-08-03T14:54:53.109Z,13.02
2022-08-03T14:57:19.839Z,19.17
2022-08-03T14:59:55.611Z,12.40
2022-08-03T15:02:24.719Z,11.57
2022-08-03T15:04:51.976Z,14.90
2022-08-03T15:07:19.086Z,17.60
2022-08-03T15:09:45.766Z,13.32
2022-08-03T15:12:12.297Z,16.73
2022-08-03T15:14:38.813Z,13.70
2022-08-03T15:17:05.515Z,17.45
2022-08-03T15:20:00.341Z,13.32
2022-08-03T15:22:20.463Z,16.90
2022-08-03T15:24:47.389Z,16.88
2022-08-03T15:27:13.901Z,18.92
2022-08-03T15:30:04.741Z,18.15
2022-08-03T15:32:27.082Z,14.43
2022-08-03T15:34:55.242Z,13.27
2022-08-03T15:37:21.822Z,11.13
2022-08-03T15:39:59.328Z,14.23
2022-08-03T15:42:30.657Z,14.82
2022-08-03T15:44:57.299Z,17.58
2022-08-03T15:47:23.821Z,16.95
2022-08-03T15:49:50.316Z,14.98
2022-08-03T15:52:16.842Z,19.30
2022-08-03T15:54:43.374Z,15.93
2022-08-03T15:57:09.873Z,16.38
2022-08-03T15:59:36.560Z,20.50
2022-08-03T16:02:03.234Z,17.10
2022-08-03T16:04:29.808Z,15.45
2022-08-03T16:06:56.309Z,16.15
2022-08-03T16:09:43.516Z,18.52
2022-08-03T16:12:11.832Z,21.88
2022-08-03T16:14:51.855Z,21.48
2022-08-03T16:17:20.202Z,17.88
2022-08-03T16:19:46.911Z,16.63
2022-08-03T16:22:14.479Z,16.45
2022-08-03T16:24:41.214Z,15.43
2022-08-03T16:27:17.651Z,17.50
2022-08-03T16:29:54.372Z,16.88
2022-08-03T16:32:21.019Z,17.65
2022-08-03T16:34:48.163Z,18.98
2022-08-03T16:37:37.789Z,16.98
2022-08-03T16:40:02.501Z,15.70
2022-08-03T16:42:29.040Z,13.43
2022-08-03T16:44:55.661Z,14.85
2022-08-03T16:47:22.932Z,16.10
2022-08-03T16:49:54.499Z,22.27
2022-08-03T16:52:23.365Z,15.55
2022-08-03T16:54:50.643Z,19.90
2022-08-03T16:57:58.304Z,17.50
2022-08-03T17:00:08.892Z,16.95
2022-08-03T17:02:36.384Z,17.23
2022-08-03T17:05:03.207Z,15.13
2022-08-03T17:07:30.395Z,19.38
2022-08-03T17:09:57.478Z,17.38
2022-08-03T17:12:27.092Z,16.30
2022-08-03T17:14:54.319Z,16.75
2022-08-03T17:17:53.739Z,18.48
2022-08-03T17:20:19.072Z,12.30
2022-08-03T17:22:56.410Z,16.88
2022-08-03T17:26:01.331Z,14.65
2022-08-03T17:28:50.296Z,14.55
2022-08-03T17:31:32.220Z,16.10
2022-08-03T17:34:00.790Z,15.00
2022-08-03T17:36:47.659Z,19.98
2022-08-03T17:39:16.587Z,17.80
2022-08-03T17:41:49.153Z,15.98
2022-08-03T17:44:35.240Z,19.10
2022-08-03T17:47:04.693Z,23.63
2022-08-03T17:49:33.134Z,17.20
2022-08-03T17:52:54.749Z,19.83
2022-08-03T17:58:14.937Z,20.20
2022-08-03T18:01:02.188Z,21.65
2022-08-03T18:03:57.988Z,17.45
2022-08-03T18:06:29.523Z,18.27
2022-08-03T18:09:04.837Z,15.93
2022-08-03T18:11:46.096Z,16.58
2022-08-03T18:14:23.859Z,18.70
2022-08-03T18:16:57.848Z,22.13
2022-08-03T18:20:03.506Z,19.17
2022-08-03T18:22:14.199Z,15.75
2022-08-03T18:24:42.186Z,14.10
2022-08-03T18:27:10.628Z,21.45
2022-08-03T18:29:37.441Z,16.75
2022-08-03T18:32:11.388Z,15.73
2022-08-03T18:34:41.132Z,14.48
2022-08-03T18:37:25.247Z,16.83
2022-08-03T18:39:55.008Z,15.90
2022-08-03T18:45:54.893Z,14.15
2022-08-03T18:48:02.411Z,18.63
2022-08-03T18:50:41.195Z,19.58
2022-08-03T18:53:20.076Z,15.43
2022-08-03T18:56:08.216Z,16.52
2022-08-03T18:58:52.296Z,14.25
2022-08-03T19:02:00.881Z,14.70
2022-08-03T19:04:27.482Z,15.38
2022-08-03T19:07:08.315Z,13.95
2022-08-03T19:09:49.625Z,13.20
2022-08-03T19:12:28.209Z,12.68
2022-08-03T19:15:03.064Z,8.20
2022-08-03T19:17:29.915Z,11.13
2022-08-03T19:19:57.708Z,14.63
2022-08-03T19:22:27.173Z,10.73
2022-08-03T19:24:57.862Z,16.92
2022-08-03T19:27:26.884Z,10.73
2022-08-03T19:29:58.718Z,11.18
2022-08-03T19:32:28.855Z,14.25
2022-08-03T19:34:56.845Z,7.40
2022-08-03T19:37:27.490Z,10.48
2022-08-03T19:40:10.933Z,9.88
2022-08-03T19:42:41.352Z,11.55
2022-08-03T19:45:11.461Z,12.77
2022-08-03T19:47:52.693Z,11.07
2022-08-03T19:50:20.359Z,12.45
2022-08-03T19:52:47.857Z,12.43
2022-08-03T19:55:15.795Z,10.80
2022-08-03T19:57:45.689Z,8.75
2022-08-03T20:00:14.003Z,8.27
2022-08-03T20:02:41.260Z,9.48
2022-08-03T20:05:14.732Z,9.20
2022-08-03T20:07:42.612Z,12.07
2022-08-03T20:10:15.346Z,11.27
2022-08-03T20:12:43.327Z,10.80
2022-08-03T20:15:10.628Z,7.60
2022-08-03T20:17:56.884Z,12.27
2022-08-03T20:20:29.564Z,11.75
2022-08-03T20:22:58.013Z,8.00
2022-08-03T20:25:38.125Z,7.25
2022-08-03T20:28:13.476Z,12.55
2022-08-03T20:33:46.733Z,5.15
2022-08-03T20:36:17.842Z,9.70
2022-08-03T20:38:46.960Z,10.05
2022-08-03T20:41:17.014Z,10.40
2022-08-03T20:43:43.942Z,13.35
2022-08-03T20:46:31.293Z,7.45
2022-08-03T20:48:58.871Z,9.65
2022-08-03T20:51:49.926Z,10.65
2022-08-03T20:54:28.736Z,7.50
2022-08-03T20:56:57.705Z,8.10
2022-08-03T20:59:28.778Z,6.88
2022-08-03T21:01:57.066Z,8.98
2022-08-03T21:04:24.215Z,8.32
2022-08-03T21:07:01.044Z,8.30
2022-08-03T21:09:39.950Z,9.20
2022-08-03T21:12:13.035Z,10.52
2022-08-03T21:12:58.870Z,15.38
2022-08-03T21:13:07.090Z,9.35
2022-08-03T21:15:02.420Z,10.40
2022-08-03T21:17:40.440Z,7.30
2022-08-03T21:20:09.518Z,6.72
2022-08-03T21:22:38.065Z,7.40
2022-08-03T21:25:09.187Z,6.25
2022-08-03T21:27:36.925Z,8.10
2022-08-03T21:30:06.720Z,10.05
2022-08-03T21:32:33.592Z,7.20
2022-08-03T21:35:01.313Z,6.18
2022-08-03T21:37:28.949Z,6.65
2022-08-03T21:39:56.674Z,2.67
2022-08-03T21:42:26.757Z,3.45
2022-08-03T21:44:55.503Z,3.38
2022-08-03T21:47:23.525Z,4.47
2022-08-03T21:50:06.384Z,3.40
2022-08-03T21:52:40.034Z,2.58
2022-08-03T21:55:07.307Z,3.58
2022-08-03T21:57:34.688Z,7.72
2022-08-03T22:00:16.690Z,7.00
2022-08-03T22:02:53.189Z,7.45
2022-08-03T22:05:42.903Z,8.65
2022-08-03T22:08:12.172Z,8.15
2022-08-03T22:10:39.017Z,8.35
2022-08-03T22:13:05.596Z,9.70
2022-08-03T22:15:32.459Z,7.60
2022-08-03T22:17:59.173Z,6.93
2022-08-03T22:20:25.998Z,9.05
2022-08-03T22:22:55.869Z,6.15
2022-08-03T22:25:29.738Z,8.32
2022-08-03T22:30:23.600Z,10.65
2022-08-03T22:32:52.963Z,7.55
2022-08-03T22:35:20.738Z,6.47
2022-08-03T22:37:49.125Z,7.93
2022-08-03T22:40:16.683Z,6.28
2022-08-03T22:42:45.659Z,6.70
2022-08-03T22:45:12.476Z,8.82
2022-08-03T22:47:59.783Z,7.63
2022-08-03T22:50:32.562Z,9.52
2022-08-03T22:53:00.355Z,10.23
2022-08-03T22:55:27.293Z,4.97
2022-08-03T22:57:56.119Z,4.88
2022-08-03T23:00:23.364Z,3.67
2022-08-03T23:02:51.280Z,10.15
2022-08-03T23:06:01.185Z,2.88
2022-08-03T23:08:10.016Z,3.35
2022-08-03T23:10:37.173Z,3.50
2022-08-03T23:13:03.673Z,5.82
2022-08-03T23:15:30.648Z,6.10
2022-08-03T23:17:58.745Z,5.57
2022-08-03T23:20:26.836Z,7.38
2022-08-03T23:22:54.811Z,6.53
2022-08-03T23:25:21.959Z,6.32
2022-08-03T23:27:49.300Z,7.07
2022-08-03T23:30:34.052Z,6.07
2022-08-03T23:33:01.040Z,7.35
2022-08-03T23:36:27.886Z,5.10
2022-08-03T23:38:36.832Z,4.97
2022-08-03T23:41:04.832Z,11.25
2022-08-03T23:43:51.115Z,8.18
2022-08-03T23:46:19.746Z,9.07
2022-08-03T23:48:46.381Z,6.57
2022-08-03T23:51:42.408Z,6.63
2022-08-03T23:54:21.018Z,7.43
2022-08-03T23:57:28.897Z,8.45
